sensor_id;sensor_type;location;lat;lon;timestamp;pressure;altitude;pressure_sealevel;temperature;humidity
36284;BME280;56085;48.910;9.478;2023-05-07T11:58:57;98065.81;;;46.42;12.31
36284;BME280;56085;48.910;9.478;2023-05-07T12:01:22;97998.78;;;49.08;11.99
36284;BME280;56085;48.910;9.478;2023-05-07T12:03:47;97862.97;;;48.22;11.79
36284;BME280;56085;48.910;9.478;2023-05-07T12:06:14;97960.44;;;48.23;11.74
36284;BME280;56085;48.910;9.478;2023-05-07T12:08:41;97923.63;;;48.20;11.56
36284;BME280;56085;48.910;9.478;2023-05-07T12:11:08;97923.81;;;48.46;11.02
36284;BME280;56085;48.910;9.478;2023-05-07T12:13:35;97894.91;;;48.06;11.10
36284;BME280;56085;48.910;9.478;2023-05-07T12:16:00;97886.09;;;47.83;11.17
36284;BME280;56085;48.910;9.478;2023-05-07T12:18:28;97883.16;;;47.49;10.91
36284;BME280;56085;48.910;9.478;2023-05-07T12:20:53;97881.09;;;47.18;10.83
36284;BME280;56085;48.910;9.478;2023-05-07T12:23:20;97950.38;;;46.94;11.17
36284;BME280;56085;48.910;9.478;2023-05-07T12:25:45;97873.94;;;46.25;11.00
36284;BME280;56085;48.910;9.478;2023-05-07T12:28:14;97917.59;;;46.23;10.94
36284;BME280;56085;48.910;9.478;2023-05-07T12:30:44;97942.81;;;46.28;10.79
36284;BME280;56085;48.910;9.478;2023-05-07T12:33:10;97878.72;;;46.21;10.78
36284;BME280;56085;48.910;9.478;2023-05-07T12:35:39;97978.72;;;46.50;10.71
36284;BME280;56085;48.910;9.478;2023-05-07T12:38:08;98013.25;;;46.32;10.94
36284;BME280;56085;48.910;9.478;2023-05-07T12:40:46;98032.78;;;46.30;10.77
36284;BME280;56085;48.910;9.478;2023-05-07T12:43:19;98032.19;;;46.22;10.95
36284;BME280;56085;48.910;9.478;2023-05-07T12:45:46;97990.38;;;45.90;10.98
36284;BME280;56085;48.910;9.478;2023-05-07T12:48:12;97875.59;;;45.38;11.10
36284;BME280;56085;48.910;9.478;2023-05-07T12:50:37;97883.59;;;45.38;11.03
36284;BME280;56085;48.910;9.478;2023-05-07T12:53:04;97950.72;;;45.47;10.81
36284;BME280;56085;48.910;9.478;2023-05-07T12:55:31;97904.50;;;45.44;11.15
36284;BME280;56085;48.910;9.478;2023-05-07T12:57:56;97886.53;;;44.61;11.04
36284;BME280;56085;48.910;9.478;2023-05-07T13:00:35;98038.09;;;45.26;11.25
36284;BME280;56085;48.910;9.478;2023-05-07T13:03:04;98031.56;;;45.08;11.13
36284;BME280;56085;48.910;9.478;2023-05-07T13:05:31;97994.78;;;44.85;11.07
36284;BME280;56085;48.910;9.478;2023-05-07T13:07:57;97902.38;;;44.68;11.48
36284;BME280;56085;48.910;9.478;2023-05-07T13:10:23;97901.50;;;44.38;11.31
36284;BME280;56085;48.910;9.478;2023-05-07T13:12:49;97892.75;;;44.38;11.58
36284;BME280;56085;48.910;9.478;2023-05-07T13:15:15;97893.50;;;44.39;11.51
36284;BME280;56085;48.910;9.478;2023-05-07T13:17:41;97884.47;;;44.44;11.42
36284;BME280;56085;48.910;9.478;2023-05-07T13:20:06;97899.34;;;44.11;11.38
36284;BME280;56085;48.910;9.478;2023-05-07T13:22:33;97887.06;;;44.03;11.73
36284;BME280;56085;48.910;9.478;2023-05-07T13:24:58;97900.34;;;42.92;11.53
36284;BME280;56085;48.910;9.478;2023-05-07T13:27:23;97914.44;;;43.20;11.60
36284;BME280;56085;48.910;9.478;2023-05-07T13:29:49;97921.59;;;43.02;11.70
36284;BME280;56085;48.910;9.478;2023-05-07T13:32:14;97952.41;;;41.89;11.98
36284;BME280;56085;48.910;9.478;2023-05-07T13:34:39;97932.09;;;42.21;11.86
36284;BME280;56085;48.910;9.478;2023-05-07T13:37:04;97915.44;;;41.89;12.00
36284;BME280;56085;48.910;9.478;2023-05-07T13:39:30;97922.81;;;42.15;11.77
36284;BME280;56085;48.910;9.478;2023-05-07T13:41:55;97984.28;;;40.71;12.08
36284;BME280;56085;48.910;9.478;2023-05-07T13:44:20;97944.84;;;40.83;12.63
36284;BME280;56085;48.910;9.478;2023-05-07T13:46:46;97984.41;;;39.82;12.77
36284;BME280;56085;48.910;9.478;2023-05-07T13:49:11;97996.09;;;39.11;12.88
36284;BME280;56085;48.910;9.478;2023-05-07T13:51:37;97988.66;;;38.52;13.03
36284;BME280;56085;48.910;9.478;2023-05-07T13:54:02;98003.97;;;38.47;13.21
36284;BME280;56085;48.910;9.478;2023-05-07T13:56:28;97976.88;;;37.28;13.72
36284;BME280;56085;48.910;9.478;2023-05-07T13:58:55;97994.84;;;37.61;13.67
36284;BME280;56085;48.910;9.478;2023-05-07T14:01:21;97980.63;;;37.89;14.33
36284;BME280;56085;48.910;9.478;2023-05-07T14:03:46;97963.47;;;39.03;14.25
36284;BME280;56085;48.910;9.478;2023-05-07T14:06:11;97935.63;;;39.50;14.96
36284;BME280;56085;48.910;9.478;2023-05-07T14:08:36;97943.69;;;39.72;14.47
36284;BME280;56085;48.910;9.478;2023-05-07T14:11:02;97954.16;;;39.18;15.31
36284;BME280;56085;48.910;9.478;2023-05-07T14:13:27;97935.84;;;39.52;15.09
36284;BME280;56085;48.910;9.478;2023-05-07T14:15:52;97964.53;;;39.50;15.28
36284;BME280;56085;48.910;9.478;2023-05-07T14:18:18;97945.00;;;39.64;15.63
36284;BME280;56085;48.910;9.478;2023-05-07T14:20:43;97975.50;;;39.43;15.52
36284;BME280;56085;48.910;9.478;2023-05-07T14:23:09;97959.91;;;39.83;15.92
36284;BME280;56085;48.910;9.478;2023-05-07T14:25:34;97954.44;;;39.64;16.00
36284;BME280;56085;48.910;9.478;2023-05-07T14:27:59;97963.31;;;40.10;16.23
36284;BME280;56085;48.910;9.478;2023-05-07T14:30:25;97989.78;;;40.22;16.19
36284;BME280;56085;48.910;9.478;2023-05-07T14:32:50;97984.59;;;39.76;16.06
36284;BME280;56085;48.910;9.478;2023-05-07T14:35:16;97996.41;;;39.94;16.58
36284;BME280;56085;48.910;9.478;2023-05-07T14:37:41;97992.47;;;38.89;16.61
36284;BME280;56085;48.910;9.478;2023-05-07T14:40:07;98025.94;;;38.29;16.87
36284;BME280;56085;48.910;9.478;2023-05-07T14:42:32;98022.13;;;37.86;17.14
36284;BME280;56085;48.910;9.478;2023-05-07T14:44:58;98043.94;;;38.22;17.14
36284;BME280;56085;48.910;9.478;2023-05-07T14:47:23;98042.16;;;38.19;17.36
36284;BME280;56085;48.910;9.478;2023-05-07T14:49:48;98026.56;;;37.47;17.28
36284;BME280;56085;48.910;9.478;2023-05-07T14:52:13;98017.47;;;37.57;17.76
36284;BME280;56085;48.910;9.478;2023-05-07T14:54:39;98039.44;;;37.46;17.86
36284;BME280;56085;48.910;9.478;2023-05-07T14:57:05;98007.44;;;37.17;18.24
36284;BME280;56085;48.910;9.478;2023-05-07T14:59:31;98072.53;;;36.23;18.19
36284;BME280;56085;48.910;9.478;2023-05-07T15:01:57;98050.22;;;36.48;18.41
36284;BME280;56085;48.910;9.478;2023-05-07T15:04:23;98100.31;;;36.40;17.88
36284;BME280;56085;48.910;9.478;2023-05-07T15:06:48;98043.47;;;37.11;18.52
36284;BME280;56085;48.910;9.478;2023-05-07T15:09:14;98041.09;;;37.42;18.39
36284;BME280;56085;48.910;9.478;2023-05-07T15:11:40;98042.31;;;38.00;18.64
36284;BME280;56085;48.910;9.478;2023-05-07T15:14:05;98030.72;;;38.27;18.51
36284;BME280;56085;48.910;9.478;2023-05-07T15:16:30;98032.13;;;38.68;18.65
36284;BME280;56085;48.910;9.478;2023-05-07T15:18:56;98022.78;;;38.40;18.79
36284;BME280;56085;48.910;9.478;2023-05-07T15:21:22;98031.72;;;38.50;18.78
36284;BME280;56085;48.910;9.478;2023-05-07T15:23:47;98034.78;;;37.83;18.74
36284;BME280;56085;48.910;9.478;2023-05-07T15:26:12;98019.56;;;37.69;18.85
36284;BME280;56085;48.910;9.478;2023-05-07T15:28:38;98026.59;;;37.74;18.88
36284;BME280;56085;48.910;9.478;2023-05-07T15:31:04;98025.84;;;38.08;18.51
36284;BME280;56085;48.910;9.478;2023-05-07T15:33:31;98037.88;;;37.99;19.10
36284;BME280;56085;48.910;9.478;2023-05-07T15:35:56;98022.31;;;38.50;19.04
36284;BME280;56085;48.910;9.478;2023-05-07T15:38:24;98028.84;;;38.50;18.92
36284;BME280;56085;48.910;9.478;2023-05-07T15:40:49;98037.75;;;38.52;19.00
36284;BME280;56085;48.910;9.478;2023-05-07T15:43:15;98038.84;;;39.05;19.25
36284;BME280;56085;48.910;9.478;2023-05-07T15:45:41;98066.34;;;39.48;18.88
36284;BME280;56085;48.910;9.478;2023-05-07T15:48:07;98057.06;;;39.42;19.27
36284;BME280;56085;48.910;9.478;2023-05-07T15:50:33;98024.25;;;39.60;19.04
36284;BME280;56085;48.910;9.478;2023-05-07T15:52:58;98041.63;;;39.68;19.44
36284;BME280;56085;48.910;9.478;2023-05-07T15:55:23;98037.91;;;39.60;19.32
36284;BME280;56085;48.910;9.478;2023-05-07T15:57:48;98040.47;;;39.42;19.32
36284;BME280;56085;48.910;9.478;2023-05-07T16:00:14;98044.28;;;39.66;19.09
36284;BME280;56085;48.910;9.478;2023-05-07T16:02:41;98028.41;;;39.52;19.29
36284;BME280;56085;48.910;9.478;2023-05-07T16:05:07;98033.88;;;39.34;19.39
36284;BME280;56085;48.910;9.478;2023-05-07T16:07:36;98040.16;;;39.25;19.49
36284;BME280;56085;48.910;9.478;2023-05-07T16:10:03;98091.63;;;39.26;19.49
36284;BME280;56085;48.910;9.478;2023-05-07T16:12:28;98026.06;;;39.00;19.46
36284;BME280;56085;48.910;9.478;2023-05-07T16:14:54;98060.81;;;38.66;19.42
36284;BME280;56085;48.910;9.478;2023-05-07T16:17:19;98065.00;;;38.30;19.48
36284;BME280;56085;48.910;9.478;2023-05-07T16:19:44;98077.69;;;38.00;19.53
36284;BME280;56085;48.910;9.478;2023-05-07T16:22:10;98052.31;;;37.85;19.42
36284;BME280;56085;48.910;9.478;2023-05-07T16:24:35;98024.63;;;38.51;19.65
36284;BME280;56085;48.910;9.478;2023-05-07T16:27:00;98066.50;;;37.70;19.81
36284;BME280;56085;48.910;9.478;2023-05-07T16:29:26;98075.38;;;37.72;19.73
36284;BME280;56085;48.910;9.478;2023-05-07T16:31:52;98153.84;;;38.11;19.79
36284;BME280;56085;48.910;9.478;2023-05-07T16:34:17;98078.47;;;37.47;20.13
36284;BME280;56085;48.910;9.478;2023-05-07T16:36:43;98114.44;;;38.00;20.29
36284;BME280;56085;48.910;9.478;2023-05-07T16:39:08;98090.66;;;38.34;19.91
36284;BME280;56085;48.910;9.478;2023-05-07T16:41:33;98067.28;;;38.80;19.91
36284;BME280;56085;48.910;9.478;2023-05-07T16:43:58;98086.72;;;39.14;20.23
36284;BME280;56085;48.910;9.478;2023-05-07T16:46:24;98078.34;;;39.10;19.95
36284;BME280;56085;48.910;9.478;2023-05-07T16:48:49;98090.28;;;38.85;20.01
36284;BME280;56085;48.910;9.478;2023-05-07T16:51:14;98077.94;;;38.50;19.87
36284;BME280;56085;48.910;9.478;2023-05-07T16:53:39;98080.25;;;38.52;20.26
36284;BME280;56085;48.910;9.478;2023-05-07T16:56:05;98079.66;;;38.80;19.96
36284;BME280;56085;48.910;9.478;2023-05-07T16:58:30;98069.13;;;39.33;20.05
36284;BME280;56085;48.910;9.478;2023-05-07T17:00:57;98084.13;;;38.68;20.08
36284;BME280;56085;48.910;9.478;2023-05-07T17:03:23;98073.78;;;38.38;20.05
36284;BME280;56085;48.910;9.478;2023-05-07T17:05:48;98090.91;;;37.96;20.47
36284;BME280;56085;48.910;9.478;2023-05-07T17:08:13;98072.06;;;37.81;20.48
36284;BME280;56085;48.910;9.478;2023-05-07T17:10:39;98109.09;;;38.31;20.32
36284;BME280;56085;48.910;9.478;2023-05-07T17:13:04;98106.47;;;38.67;20.66
36284;BME280;56085;48.910;9.478;2023-05-07T17:15:30;98089.78;;;38.73;20.42
36284;BME280;56085;48.910;9.478;2023-05-07T17:17:55;98097.81;;;39.09;20.49
36284;BME280;56085;48.910;9.478;2023-05-07T17:20:20;98082.66;;;39.59;20.40
36284;BME280;56085;48.910;9.478;2023-05-07T17:22:46;98095.41;;;39.42;20.16
36284;BME280;56085;48.910;9.478;2023-05-07T17:25:11;98113.94;;;39.47;20.26
36284;BME280;56085;48.910;9.478;2023-05-07T17:27:36;98091.34;;;39.59;20.88
36284;BME280;56085;48.910;9.478;2023-05-07T17:30:02;98093.78;;;39.55;20.24
36284;BME280;56085;48.910;9.478;2023-05-07T17:32:27;98103.28;;;39.13;20.45
36284;BME280;56085;48.910;9.478;2023-05-07T17:34:54;98122.09;;;39.27;20.33
36284;BME280;56085;48.910;9.478;2023-05-07T17:37:19;98102.47;;;39.34;20.41
36284;BME280;56085;48.910;9.478;2023-05-07T17:39:44;98097.34;;;39.19;20.55
36284;BME280;56085;48.910;9.478;2023-05-07T17:42:10;98095.06;;;39.04;20.23
36284;BME280;56085;48.910;9.478;2023-05-07T17:44:35;98111.44;;;39.01;20.53
36284;BME280;56085;48.910;9.478;2023-05-07T17:47:00;98116.34;;;38.93;20.16
36284;BME280;56085;48.910;9.478;2023-05-07T17:49:26;98113.88;;;38.76;20.05
36284;BME280;56085;48.910;9.478;2023-05-07T17:51:51;98130.47;;;38.97;20.39
36284;BME280;56085;48.910;9.478;2023-05-07T17:54:17;98114.81;;;38.92;20.20
36284;BME280;56085;48.910;9.478;2023-05-07T17:56:42;98130.78;;;38.72;20.42
36284;BME280;56085;48.910;9.478;2023-05-07T17:59:07;98126.28;;;38.50;20.40
36284;BME280;56085;48.910;9.478;2023-05-07T18:01:33;98134.81;;;38.42;20.30
36284;BME280;56085;48.910;9.478;2023-05-07T18:03:58;98131.47;;;38.51;20.59
36284;BME280;56085;48.910;9.478;2023-05-07T18:06:24;98117.34;;;38.61;20.39
36284;BME280;56085;48.910;9.478;2023-05-07T18:08:49;98127.16;;;38.45;20.57
36284;BME280;56085;48.910;9.478;2023-05-07T18:11:15;98121.63;;;38.06;20.20
36284;BME280;56085;48.910;9.478;2023-05-07T18:13:40;98107.25;;;37.80;20.33
36284;BME280;56085;48.910;9.478;2023-05-07T18:16:05;98135.91;;;37.59;20.38
36284;BME280;56085;48.910;9.478;2023-05-07T18:18:31;98135.06;;;37.77;20.45
36284;BME280;56085;48.910;9.478;2023-05-07T18:20:59;98128.31;;;37.75;20.63
36284;BME280;56085;48.910;9.478;2023-05-07T18:23:25;98135.59;;;37.49;20.66
36284;BME280;56085;48.910;9.478;2023-05-07T18:25:50;98146.59;;;37.64;20.65
36284;BME280;56085;48.910;9.478;2023-05-07T18:28:15;98143.59;;;37.69;20.99
36284;BME280;56085;48.910;9.478;2023-05-07T18:30:41;98149.38;;;38.10;20.96
36284;BME280;56085;48.910;9.478;2023-05-07T18:33:06;98157.63;;;38.32;20.83
36284;BME280;56085;48.910;9.478;2023-05-07T18:35:32;98146.34;;;38.69;20.54
36284;BME280;56085;48.910;9.478;2023-05-07T18:37:57;98170.22;;;38.56;20.69
36284;BME280;56085;48.910;9.478;2023-05-07T18:40:22;98161.13;;;38.52;20.63
36284;BME280;56085;48.910;9.478;2023-05-07T18:42:48;98154.34;;;38.63;20.46
36284;BME280;56085;48.910;9.478;2023-05-07T18:45:13;98123.31;;;38.29;20.68
36284;BME280;56085;48.910;9.478;2023-05-07T18:47:38;98147.84;;;38.09;20.60
36284;BME280;56085;48.910;9.478;2023-05-07T18:50:04;98187.81;;;37.59;20.93
36284;BME280;56085;48.910;9.478;2023-05-07T18:52:29;98173.25;;;37.83;20.72
36284;BME280;56085;48.910;9.478;2023-05-07T18:54:55;98202.56;;;37.55;20.99
36284;BME280;56085;48.910;9.478;2023-05-07T18:57:20;98178.84;;;37.49;20.95
36284;BME280;56085;48.910;9.478;2023-05-07T18:59:45;98179.31;;;37.34;21.02
36284;BME280;56085;48.910;9.478;2023-05-07T19:02:11;98185.25;;;37.42;21.03
36284;BME280;56085;48.910;9.478;2023-05-07T19:04:38;98192.88;;;37.39;20.91
36284;BME280;56085;48.910;9.478;2023-05-07T19:07:04;98182.75;;;37.65;20.93
36284;BME280;56085;48.910;9.478;2023-05-07T19:09:29;98199.53;;;37.80;20.70
36284;BME280;56085;48.910;9.478;2023-05-07T19:11:54;98182.75;;;37.65;21.01
36284;BME280;56085;48.910;9.478;2023-05-07T19:14:20;98187.09;;;37.85;20.91
36284;BME280;56085;48.910;9.478;2023-05-07T19:16:45;98184.56;;;38.08;20.92
36284;BME280;56085;48.910;9.478;2023-05-07T19:19:10;98195.81;;;37.98;20.96
36284;BME280;56085;48.910;9.478;2023-05-07T19:21:36;98189.03;;;37.96;21.05
36284;BME280;56085;48.910;9.478;2023-05-07T19:24:01;98205.88;;;37.92;21.07
36284;BME280;56085;48.910;9.478;2023-05-07T19:26:26;98218.22;;;37.60;20.87
36284;BME280;56085;48.910;9.478;2023-05-07T19:28:52;98225.94;;;37.51;20.67
36284;BME280;56085;48.910;9.478;2023-05-07T19:31:21;98345.25;;;37.67;21.02
36284;BME280;56085;48.910;9.478;2023-05-07T19:33:47;98201.00;;;37.54;21.15
36284;BME280;56085;48.910;9.478;2023-05-07T19:36:12;98215.63;;;37.75;21.02
36284;BME280;56085;48.910;9.478;2023-05-07T19:38:37;98202.78;;;37.89;21.02
36284;BME280;56085;48.910;9.478;2023-05-07T19:41:02;98220.66;;;37.55;21.02
36284;BME280;56085;48.910;9.478;2023-05-07T19:43:30;98332.44;;;37.49;20.95
36284;BME280;56085;48.910;9.478;2023-05-07T19:46:00;98233.34;;;36.95;21.10
36284;BME280;56085;48.910;9.478;2023-05-07T19:48:25;98232.03;;;36.96;21.05
36284;BME280;56085;48.910;9.478;2023-05-07T19:50:51;98246.38;;;37.02;20.92
36284;BME280;56085;48.910;9.478;2023-05-07T19:53:16;98244.31;;;36.97;21.10
36284;BME280;56085;48.910;9.478;2023-05-07T19:55:41;98244.25;;;37.02;21.27
36284;BME280;56085;48.910;9.478;2023-05-07T19:58:06;98274.91;;;37.38;21.08
36284;BME280;56085;48.910;9.478;2023-05-07T20:00:32;98250.22;;;37.43;21.06
36284;BME280;56085;48.910;9.478;2023-05-07T20:02:58;98239.66;;;37.13;21.03
36284;BME280;56085;48.910;9.478;2023-05-07T20:05:23;98279.19;;;36.74;21.25
36284;BME280;56085;48.910;9.478;2023-05-07T20:07:50;98281.19;;;36.36;21.27
36284;BME280;56085;48.910;9.478;2023-05-07T20:10:15;98264.69;;;36.11;21.40
36284;BME280;56085;48.910;9.478;2023-05-07T20:12:40;98256.63;;;36.54;21.32
36284;BME280;56085;48.910;9.478;2023-05-07T20:15:06;98286.31;;;36.67;21.55
36284;BME280;56085;48.910;9.478;2023-05-07T20:17:32;98271.13;;;37.30;21.70
36284;BME280;56085;48.910;9.478;2023-05-07T20:19:57;98280.53;;;37.11;21.26
36284;BME280;56085;48.910;9.478;2023-05-07T20:22:22;98278.13;;;37.15;21.22
36284;BME280;56085;48.910;9.478;2023-05-07T20:24:48;98272.22;;;37.27;21.44
36284;BME280;56085;48.910;9.478;2023-05-07T20:27:13;98285.22;;;37.33;21.59
36284;BME280;56085;48.910;9.478;2023-05-07T20:29:40;98289.66;;;37.34;21.48
36284;BME280;56085;48.910;9.478;2023-05-07T20:32:05;98275.47;;;36.98;21.70
36284;BME280;56085;48.910;9.478;2023-05-07T20:34:30;98303.19;;;37.01;21.71
36284;BME280;56085;48.910;9.478;2023-05-07T20:36:56;98301.56;;;37.06;21.63
36284;BME280;56085;48.910;9.478;2023-05-07T20:39:21;98305.59;;;37.16;21.77
36284;BME280;56085;48.910;9.478;2023-05-07T20:41:46;98296.59;;;37.45;21.77
36284;BME280;56085;48.910;9.478;2023-05-07T20:44:12;98323.16;;;37.37;22.06
36284;BME280;56085;48.910;9.478;2023-05-07T20:46:37;98302.75;;;37.35;21.70
36284;BME280;56085;48.910;9.478;2023-05-07T20:49:03;98298.78;;;37.19;21.42
36284;BME280;56085;48.910;9.478;2023-05-07T20:51:29;98284.66;;;37.16;21.75
36284;BME280;56085;48.910;9.478;2023-05-07T20:53:54;98296.50;;;36.93;21.70
36284;BME280;56085;48.910;9.478;2023-05-07T20:56:20;98297.41;;;36.82;21.58
36284;BME280;56085;48.910;9.478;2023-05-07T20:58:46;98299.63;;;36.71;21.50
36284;BME280;56085;48.910;9.478;2023-05-07T21:01:11;98293.59;;;36.74;21.83
36284;BME280;56085;48.910;9.478;2023-05-07T21:03:36;98307.84;;;36.85;21.81
36284;BME280;56085;48.910;9.478;2023-05-07T21:06:02;98298.66;;;37.06;21.76
36284;BME280;56085;48.910;9.478;2023-05-07T21:08:28;98294.00;;;37.03;21.58
36284;BME280;56085;48.910;9.478;2023-05-07T21:10:54;98331.91;;;37.32;21.69
36284;BME280;56085;48.910;9.478;2023-05-07T21:13:19;98302.59;;;37.28;21.83
36284;BME280;56085;48.910;9.478;2023-05-07T21:15:44;98298.44;;;37.42;21.82
36284;BME280;56085;48.910;9.478;2023-05-07T21:18:10;98303.53;;;36.98;22.03
36284;BME280;56085;48.910;9.478;2023-05-07T21:20:36;98332.81;;;37.02;21.67
36284;BME280;56085;48.910;9.478;2023-05-07T21:23:02;98319.69;;;36.57;21.73
36284;BME280;56085;48.910;9.478;2023-05-07T21:25:27;98313.00;;;37.12;21.72
36284;BME280;56085;48.910;9.478;2023-05-07T21:27:52;98303.50;;;36.79;21.98
36284;BME280;56085;48.910;9.478;2023-05-07T21:30:18;98318.78;;;36.68;21.84
36284;BME280;56085;48.910;9.478;2023-05-07T21:32:44;98351.66;;;36.54;21.90
36284;BME280;56085;48.910;9.478;2023-05-07T21:35:09;98311.44;;;36.48;22.11
36284;BME280;56085;48.910;9.478;2023-05-07T21:37:35;98324.19;;;36.53;21.72
36284;BME280;56085;48.910;9.478;2023-05-07T21:40:00;98302.69;;;36.54;22.07
36284;BME280;56085;48.910;9.478;2023-05-07T21:42:26;98331.09;;;36.68;21.65
36284;BME280;56085;48.910;9.478;2023-05-07T21:44:51;98311.53;;;36.86;21.87
36284;BME280;56085;48.910;9.478;2023-05-07T21:47:16;98318.00;;;37.11;22.07
36284;BME280;56085;48.910;9.478;2023-05-07T21:49:42;98315.97;;;37.06;22.09
36284;BME280;56085;48.910;9.478;2023-05-07T21:52:14;98454.22;;;37.12;21.54
36284;BME280;56085;48.910;9.478;2023-05-07T21:54:40;98318.94;;;37.00;21.76
36284;BME280;56085;48.910;9.478;2023-05-07T21:57:05;98304.59;;;36.95;21.87
36284;BME280;56085;48.910;9.478;2023-05-07T21:59:31;98308.03;;;37.12;22.16
36284;BME280;56085;48.910;9.478;2023-05-07T22:01:58;98324.34;;;37.29;22.18
36284;BME280;56085;48.910;9.478;2023-05-07T22:04:24;98314.97;;;37.23;21.90
36284;BME280;56085;48.910;9.478;2023-05-07T22:06:49;98325.56;;;37.52;22.11
36284;BME280;56085;48.910;9.478;2023-05-07T22:09:14;98306.72;;;37.32;22.06
36284;BME280;56085;48.910;9.478;2023-05-07T22:11:39;98306.06;;;37.01;22.20
36284;BME280;56085;48.910;9.478;2023-05-07T22:14:05;98327.22;;;37.29;22.44
36284;BME280;56085;48.910;9.478;2023-05-07T22:16:30;98324.72;;;37.38;21.90
36284;BME280;56085;48.910;9.478;2023-05-07T22:18:55;98311.63;;;37.18;21.95
36284;BME280;56085;48.910;9.478;2023-05-07T22:21:21;98304.59;;;37.52;21.75
36284;BME280;56085;48.910;9.478;2023-05-07T22:23:46;98293.88;;;37.66;22.12
36284;BME280;56085;48.910;9.478;2023-05-07T22:26:12;98343.00;;;37.79;21.77
36284;BME280;56085;48.910;9.478;2023-05-07T22:28:38;98314.38;;;37.81;21.99
36284;BME280;56085;48.910;9.478;2023-05-07T22:31:03;98301.22;;;37.99;21.72
36284;BME280;56085;48.910;9.478;2023-05-07T22:33:29;98306.34;;;38.06;21.80
36284;BME280;56085;48.910;9.478;2023-05-07T22:35:54;98297.00;;;38.00;22.17
36284;BME280;56085;48.910;9.478;2023-05-07T22:38:19;98324.28;;;37.86;21.88
36284;BME280;56085;48.910;9.478;2023-05-07T22:40:45;98283.66;;;37.84;21.57
36284;BME280;56085;48.910;9.478;2023-05-07T22:43:10;98332.47;;;37.63;21.73
36284;BME280;56085;48.910;9.478;2023-05-07T22:45:35;98326.41;;;37.66;21.64
36284;BME280;56085;48.910;9.478;2023-05-07T22:48:01;98322.84;;;37.41;22.04
36284;BME280;56085;48.910;9.478;2023-05-07T22:50:26;98310.03;;;37.55;21.82
36284;BME280;56085;48.910;9.478;2023-05-07T22:52:51;98334.69;;;37.18;21.89
36284;BME280;56085;48.910;9.478;2023-05-07T22:55:16;98337.47;;;37.81;21.50
36284;BME280;56085;48.910;9.478;2023-05-07T22:57:42;98293.53;;;37.88;21.58
36284;BME280;56085;48.910;9.478;2023-05-07T23:00:07;98305.69;;;37.49;22.06
36284;BME280;56085;48.910;9.478;2023-05-07T23:02:34;98304.06;;;37.53;21.87
36284;BME280;56085;48.910;9.478;2023-05-07T23:04:59;98310.13;;;38.01;21.54
36284;BME280;56085;48.910;9.478;2023-05-07T23:07:26;98317.47;;;38.16;21.66
36284;BME280;56085;48.910;9.478;2023-05-07T23:09:51;98292.19;;;38.22;21.44
36284;BME280;56085;48.910;9.478;2023-05-07T23:12:16;98299.44;;;37.96;21.69
36284;BME280;56085;48.910;9.478;2023-05-07T23:14:41;98303.75;;;38.35;21.86
36284;BME280;56085;48.910;9.478;2023-05-07T23:17:07;98298.19;;;38.51;21.54
36284;BME280;56085;48.910;9.478;2023-05-07T23:19:32;98314.97;;;38.52;21.19
36284;BME280;56085;48.910;9.478;2023-05-07T23:21:57;98312.50;;;38.56;21.67
36284;BME280;56085;48.910;9.478;2023-05-07T23:24:23;98307.75;;;38.99;21.45
36284;BME280;56085;48.910;9.478;2023-05-07T23:26:48;98299.53;;;38.63;21.46
36284;BME280;56085;48.910;9.478;2023-05-07T23:29:13;98317.91;;;38.66;21.45
36284;BME280;56085;48.910;9.478;2023-05-07T23:31:38;98310.19;;;38.55;21.45
36284;BME280;56085;48.910;9.478;2023-05-07T23:34:04;98312.44;;;38.75;21.03
36284;BME280;56085;48.910;9.478;2023-05-07T23:36:29;98303.53;;;38.60;21.31
36284;BME280;56085;48.910;9.478;2023-05-07T23:38:56;98290.94;;;38.17;21.24
36284;BME280;56085;48.910;9.478;2023-05-07T23:41:21;98304.41;;;37.82;21.33
36284;BME280;56085;48.910;9.478;2023-05-07T23:43:47;98312.44;;;38.03;21.17
36284;BME280;56085;48.910;9.478;2023-05-07T23:46:12;98294.97;;;38.28;21.02
36284;BME280;56085;48.910;9.478;2023-05-07T23:48:37;98297.41;;;38.23;21.37
36284;BME280;56085;48.910;9.478;2023-05-07T23:51:02;98285.97;;;38.31;21.14
36284;BME280;56085;48.910;9.478;2023-05-07T23:53:28;98282.53;;;38.33;21.19
36284;BME280;56085;48.910;9.478;2023-05-07T23:55:53;98283.75;;;38.64;21.31
36284;BME280;56085;48.910;9.478;2023-05-07T23:58:18;98275.88;;;38.65;21.09
